createdAt,value
2023-01-13T00:01:25.756Z,6.10
2023-01-13T00:03:52.880Z,6.10
2023-01-13T00:06:22.724Z,6.10
2023-01-13T00:08:51.517Z,6.10
2023-01-13T00:11:20.012Z,6.00
2023-01-13T00:13:47.293Z,6.00
2023-01-13T00:16:16.663Z,6.00
2023-01-13T00:18:44.171Z,5.90
2023-01-13T00:21:17.240Z,5.90
2023-01-13T00:23:44.614Z,5.90
2023-01-13T00:26:14.729Z,5.90
2023-01-13T00:28:41.904Z,5.90
2023-01-13T00:31:11.521Z,5.80
2023-01-13T00:33:38.952Z,5.80
2023-01-13T00:36:08.443Z,5.80
2023-01-13T00:38:36.762Z,5.80
2023-01-13T00:41:09.882Z,5.70
2023-01-13T00:43:38.055Z,5.80
2023-01-13T00:46:07.606Z,5.70
2023-01-13T00:48:35.036Z,5.70
2023-01-13T00:51:09.847Z,5.70
2023-01-13T00:53:43.193Z,5.60
2023-01-13T00:56:24.386Z,5.60
2023-01-13T00:58:58.803Z,5.60
2023-01-13T01:01:26.399Z,5.60
2023-01-13T01:03:54.469Z,5.60
2023-01-13T01:06:26.323Z,5.60
2023-01-13T01:08:54.316Z,5.60
2023-01-13T01:11:27.631Z,5.60
2023-01-13T01:13:57.313Z,5.60
2023-01-13T01:16:26.335Z,5.60
2023-01-13T01:18:54.568Z,5.60
2023-01-13T01:21:23.270Z,5.60
2023-01-13T01:23:50.745Z,5.60
2023-01-13T01:26:24.121Z,5.60
2023-01-13T01:28:51.823Z,5.60
2023-01-13T01:31:25.273Z,5.60
2023-01-13T01:33:53.983Z,5.60
2023-01-13T01:36:21.552Z,5.70
2023-01-13T01:38:49.868Z,5.70
2023-01-13T01:41:20.924Z,5.70
2023-01-13T01:44:07.211Z,5.70
2023-01-13T01:46:44.534Z,5.70
2023-01-13T01:49:20.235Z,5.70
2023-01-13T01:51:52.560Z,5.70
2023-01-13T01:54:25.975Z,5.80
2023-01-13T01:56:53.675Z,5.70
2023-01-13T01:59:20.942Z,5.70
2023-01-13T02:01:49.112Z,5.70
2023-01-13T02:04:22.725Z,5.80
2023-01-13T02:06:50.890Z,5.80
2023-01-13T02:09:18.299Z,5.80
2023-01-13T02:12:03.850Z,5.80
2023-01-13T02:14:31.803Z,5.80
2023-01-13T02:17:16.117Z,5.80
2023-01-13T02:20:14.075Z,5.80
2023-01-13T02:23:35.088Z,5.90
2023-01-13T02:26:29.783Z,5.80
2023-01-13T02:29:43.438Z,5.80
2023-01-13T02:32:35.919Z,5.80
2023-01-13T02:35:12.302Z,5.90
2023-01-13T02:37:43.685Z,5.90
2023-01-13T02:40:29.686Z,5.90
2023-01-13T02:43:24.695Z,5.90
2023-01-13T02:46:14.543Z,5.90
2023-01-13T02:48:45.517Z,5.90
2023-01-13T02:51:17.467Z,5.90
2023-01-13T02:53:54.047Z,6.00
2023-01-13T02:56:23.285Z,6.00
2023-01-13T02:58:51.359Z,6.00
2023-01-13T03:01:18.875Z,6.00
2023-01-13T03:03:46.977Z,6.00
2023-01-13T03:06:16.963Z,6.00
2023-01-13T03:09:03.547Z,6.00
2023-01-13T03:11:39.875Z,6.00
2023-01-13T03:14:36.056Z,6.00
2023-01-13T03:17:37.681Z,6.00
2023-01-13T03:20:11.136Z,6.00
2023-01-13T03:23:05.884Z,6.00
2023-01-13T03:25:37.351Z,6.00
2023-01-13T03:28:13.955Z,6.00
2023-01-13T03:30:48.630Z,6.00
2023-01-13T03:33:25.551Z,6.00
2023-01-13T03:35:57.226Z,6.00
2023-01-13T03:38:28.202Z,6.00
2023-01-13T03:40:59.199Z,6.00
2023-01-13T03:44:00.800Z,6.00
2023-01-13T03:46:43.561Z,6.00
2023-01-13T03:49:13.970Z,6.00
2023-01-13T03:51:43.665Z,6.00
2023-01-13T03:54:14.052Z,6.00
2023-01-13T03:56:48.075Z,6.00
2023-01-13T03:59:22.305Z,6.00
2023-01-13T04:02:05.997Z,6.10
2023-01-13T04:04:52.769Z,6.00
2023-01-13T04:07:45.458Z,6.10
2023-01-13T04:10:14.280Z,6.10
2023-01-13T04:13:05.212Z,6.10
2023-01-13T04:15:37.052Z,6.10
2023-01-13T04:18:16.336Z,6.10
2023-01-13T04:20:45.870Z,6.10
2023-01-13T04:23:13.689Z,6.10
2023-01-13T04:25:41.686Z,6.10
2023-01-13T04:28:09.587Z,6.20
2023-01-13T04:30:37.145Z,6.20
2023-01-13T04:33:05.361Z,6.20
2023-01-13T04:35:34.185Z,6.20
2023-01-13T04:38:07.135Z,6.20
2023-01-13T04:40:34.326Z,6.20
2023-01-13T04:43:01.734Z,6.20
2023-01-13T04:45:28.717Z,6.20
2023-01-13T04:47:55.824Z,6.20
2023-01-13T04:50:23.107Z,6.20
2023-01-13T04:52:51.519Z,6.20
2023-01-13T04:55:20.086Z,6.20
2023-01-13T04:57:47.197Z,6.20
2023-01-13T05:00:17.639Z,6.20
2023-01-13T05:02:44.894Z,6.20
2023-01-13T05:05:11.935Z,6.20
2023-01-13T05:07:39.002Z,6.20
2023-01-13T05:10:06.332Z,6.20
2023-01-13T05:12:51.699Z,6.20
2023-01-13T05:15:37.609Z,6.20
2023-01-13T05:18:04.923Z,6.20
2023-01-13T05:20:31.987Z,6.20
2023-01-13T05:23:17.251Z,6.20
2023-01-13T05:25:44.708Z,6.20
2023-01-13T05:28:11.867Z,6.20
2023-01-13T05:30:44.068Z,6.20
2023-01-13T05:33:13.576Z,6.20
2023-01-13T05:35:42.191Z,6.20
2023-01-13T05:38:09.186Z,6.20
2023-01-13T05:40:58.477Z,6.20
2023-01-13T05:43:27.230Z,6.20
2023-01-13T05:45:56.974Z,6.20
2023-01-13T05:48:27.140Z,6.20
2023-01-13T05:50:54.755Z,6.20
2023-01-13T05:53:23.239Z,6.20
2023-01-13T05:55:51.059Z,6.20
2023-01-13T05:58:19.875Z,6.20
2023-01-13T06:00:47.523Z,6.20
2023-01-13T06:03:16.047Z,6.20
2023-01-13T06:05:43.648Z,6.20
2023-01-13T06:08:10.678Z,6.20
2023-01-13T06:10:37.673Z,6.30
2023-01-13T06:13:05.381Z,6.30
2023-01-13T06:15:32.739Z,6.30
2023-01-13T06:18:02.884Z,6.30
2023-01-13T06:20:30.082Z,6.30
2023-01-13T06:22:57.977Z,6.30
2023-01-13T06:25:55.190Z,6.30
2023-01-13T06:28:22.390Z,6.30
2023-01-13T06:30:55.012Z,6.30
2023-01-13T06:33:27.829Z,6.30
2023-01-13T06:36:00.180Z,6.30
2023-01-13T06:38:28.976Z,6.30
2023-01-13T06:40:56.094Z,6.30
2023-01-13T06:43:23.204Z,6.30
2023-01-13T06:45:53.616Z,6.30
2023-01-13T06:48:24.102Z,6.30
2023-01-13T06:50:51.235Z,6.30
2023-01-13T06:53:19.432Z,6.30
2023-01-13T06:55:46.528Z,6.30
2023-01-13T06:58:13.522Z,6.30
2023-01-13T07:00:40.701Z,6.30
2023-01-13T07:03:12.143Z,6.30
2023-01-13T07:05:40.380Z,6.30
2023-01-13T07:08:08.475Z,6.30
2023-01-13T07:10:36.937Z,6.30
2023-01-13T07:13:24.324Z,6.30
2023-01-13T07:16:00.100Z,6.30
2023-01-13T07:18:28.814Z,6.30
2023-01-13T07:20:56.665Z,6.30
2023-01-13T07:23:24.084Z,6.30
2023-01-13T07:25:51.519Z,6.30
2023-01-13T07:28:18.482Z,6.30
2023-01-13T07:30:45.497Z,6.30
2023-01-13T07:33:12.465Z,6.30
2023-01-13T07:35:39.420Z,6.30
2023-01-13T07:38:09.243Z,6.30
2023-01-13T07:40:36.492Z,6.30
2023-01-13T07:43:22.828Z,6.30
2023-01-13T07:45:49.937Z,6.30
2023-01-13T07:48:16.990Z,6.30
2023-01-13T07:50:44.285Z,6.30
2023-01-13T07:53:11.427Z,6.30
2023-01-13T07:55:42.841Z,6.30
2023-01-13T07:58:10.798Z,6.30
2023-01-13T08:00:38.698Z,6.30
2023-01-13T08:03:06.021Z,6.30
2023-01-13T08:05:35.622Z,6.30
2023-01-13T08:08:02.899Z,6.30
2023-01-13T08:10:30.096Z,6.30
2023-01-13T08:13:15.534Z,6.30
2023-01-13T08:15:42.665Z,6.30
2023-01-13T08:18:09.698Z,6.30
2023-01-13T08:20:36.748Z,6.30
2023-01-13T08:23:05.611Z,6.30
2023-01-13T08:25:34.347Z,6.40
2023-01-13T08:28:01.566Z,6.40
2023-01-13T08:30:28.858Z,6.40
2023-01-13T08:32:55.986Z,6.40
2023-01-13T08:35:23.449Z,6.50
2023-01-13T08:37:51.111Z,6.50
2023-01-13T08:40:20.887Z,6.50
2023-01-13T08:42:48.816Z,6.60
2023-01-13T08:45:16.342Z,6.60
2023-01-13T08:47:43.424Z,6.60
2023-01-13T08:50:11.586Z,6.50
2023-01-13T08:52:38.771Z,6.50
2023-01-13T08:55:06.593Z,6.50
2023-01-13T08:57:33.611Z,6.50
2023-01-13T09:00:00.637Z,6.50
2023-01-13T09:02:28.148Z,6.50
2023-01-13T09:04:55.529Z,6.50
2023-01-13T09:07:22.622Z,6.50
2023-01-13T09:09:49.601Z,6.50
2023-01-13T09:12:35.204Z,6.60
2023-01-13T09:15:04.431Z,6.60
2023-01-13T09:17:31.391Z,6.60
2023-01-13T09:19:58.514Z,6.60
2023-01-13T09:22:28.293Z,6.60
2023-01-13T09:24:56.176Z,6.60
2023-01-13T09:27:23.700Z,6.60
2023-01-13T09:29:50.769Z,6.70
2023-01-13T09:32:17.832Z,6.70
2023-01-13T09:35:00.164Z,6.70
2023-01-13T09:37:36.822Z,6.70
2023-01-13T09:40:22.893Z,6.70
2023-01-13T09:43:12.770Z,6.70
2023-01-13T09:45:51.512Z,6.70
2023-01-13T09:48:31.945Z,6.70
2023-01-13T09:51:18.729Z,6.70
2023-01-13T09:53:55.846Z,6.80
2023-01-13T09:56:26.554Z,6.80
2023-01-13T09:58:53.634Z,6.80
2023-01-13T10:01:44.000Z,6.80
2023-01-13T10:04:13.008Z,6.90
2023-01-13T10:06:42.678Z,6.90
2023-01-13T10:09:38.336Z,6.90
2023-01-13T10:12:33.190Z,6.90
2023-01-13T10:15:00.646Z,6.90
2023-01-13T10:17:47.158Z,6.90
2023-01-13T10:20:26.351Z,6.90
2023-01-13T10:22:53.334Z,6.90
2023-01-13T10:25:38.052Z,6.90
2023-01-13T10:28:15.020Z,6.90
2023-01-13T10:30:45.227Z,7.00
2023-01-13T10:33:17.585Z,7.00
2023-01-13T10:36:00.829Z,7.00
2023-01-13T10:38:35.697Z,7.10
2023-01-13T10:41:18.139Z,7.10
2023-01-13T10:43:57.215Z,7.10
2023-01-13T10:46:24.429Z,7.10
2023-01-13T10:48:58.835Z,7.20
2023-01-13T10:51:37.899Z,7.10
2023-01-13T10:54:14.058Z,7.20
2023-01-13T10:56:45.397Z,7.20
2023-01-13T10:59:27.068Z,7.20
2023-01-13T11:02:26.259Z,7.20
2023-01-13T11:04:53.785Z,7.30
2023-01-13T11:07:34.122Z,7.30
2023-01-13T11:10:20.341Z,7.30
2023-01-13T11:13:09.473Z,7.30
2023-01-13T11:15:42.465Z,7.30
2023-01-13T11:18:24.646Z,7.30
2023-01-13T11:20:53.151Z,7.30
2023-01-13T11:23:21.950Z,7.30
2023-01-13T11:25:54.719Z,7.30
2023-01-13T11:28:43.322Z,7.30
2023-01-13T11:31:22.110Z,7.30
2023-01-13T11:34:16.552Z,7.30
2023-01-13T11:36:46.118Z,7.30
2023-01-13T11:39:23.243Z,7.40
2023-01-13T11:42:21.609Z,7.40
2023-01-13T11:45:03.882Z,7.40
2023-01-13T11:47:32.765Z,7.40
2023-01-13T11:50:01.584Z,7.40
2023-01-13T11:52:40.928Z,7.50
2023-01-13T11:55:23.013Z,7.50
2023-01-13T11:58:08.936Z,7.50
2023-01-13T12:01:25.051Z,7.50
2023-01-13T12:04:25.242Z,7.50
2023-01-13T12:07:23.006Z,7.50
2023-01-13T12:09:59.116Z,7.50
2023-01-13T12:12:47.582Z,7.60
2023-01-13T12:15:21.055Z,7.60
2023-01-13T12:17:50.780Z,7.60
2023-01-13T12:20:33.917Z,7.60
2023-01-13T12:23:07.405Z,7.60
2023-01-13T12:25:56.620Z,7.60
2023-01-13T12:28:32.609Z,7.60
2023-01-13T12:31:02.535Z,7.60
2023-01-13T12:33:29.553Z,7.60
2023-01-13T12:36:07.684Z,7.60
2023-01-13T12:38:48.090Z,7.50
2023-01-13T12:41:31.345Z,7.50
2023-01-13T12:44:17.500Z,7.50
2023-01-13T12:46:55.899Z,7.50
2023-01-13T12:49:24.539Z,7.50
2023-01-13T12:51:54.538Z,7.50
2023-01-13T12:54:30.833Z,7.50
2023-01-13T12:56:58.734Z,7.50
2023-01-13T12:59:25.659Z,7.50
2023-01-13T13:02:13.117Z,7.50
2023-01-13T13:04:52.597Z,7.50
2023-01-13T13:07:39.983Z,7.50
2023-01-13T13:10:24.424Z,7.50
2023-01-13T13:13:18.200Z,7.50
2023-01-13T13:15:51.871Z,7.50
2023-01-13T13:18:21.908Z,7.40
2023-01-13T13:21:10.838Z,7.40
2023-01-13T13:23:48.510Z,7.40
2023-01-13T13:26:21.313Z,7.40
2023-01-13T13:29:24.518Z,7.40
2023-01-13T13:32:17.167Z,7.30
2023-01-13T13:34:44.159Z,7.30
2023-01-13T13:37:22.396Z,7.30
2023-01-13T13:40:07.895Z,7.30
2023-01-13T13:43:02.015Z,7.30
2023-01-13T13:45:48.143Z,7.40
2023-01-13T13:48:30.978Z,7.40
2023-01-13T13:51:08.199Z,7.30
2023-01-13T13:53:39.579Z,7.30
2023-01-13T13:56:25.918Z,7.30
2023-01-13T13:58:53.541Z,7.30
2023-01-13T14:01:28.577Z,7.30
2023-01-13T14:04:21.517Z,7.20
2023-01-13T14:06:54.274Z,7.20
2023-01-13T14:09:23.052Z,7.30
2023-01-13T14:12:01.550Z,7.20
2023-01-13T14:14:28.512Z,7.30
2023-01-13T14:16:55.544Z,7.20
2023-01-13T14:19:29.720Z,7.20
2023-01-13T14:21:58.291Z,7.20
2023-01-13T14:24:26.017Z,7.30
2023-01-13T14:26:55.666Z,7.20
2023-01-13T14:29:24.558Z,7.20
2023-01-13T14:31:53.596Z,7.20
2023-01-13T14:34:31.926Z,7.20
2023-01-13T14:37:01.236Z,7.20
2023-01-13T14:39:38.809Z,7.20
2023-01-13T14:42:16.027Z,7.20
2023-01-13T14:44:48.605Z,7.20
2023-01-13T14:47:31.601Z,7.10
2023-01-13T14:50:19.240Z,7.10
2023-01-13T14:52:51.403Z,7.10
2023-01-13T14:55:21.316Z,7.00
2023-01-13T14:57:48.474Z,7.00
2023-01-13T15:00:15.411Z,7.00
2023-01-13T15:02:45.363Z,7.00
2023-01-13T15:05:24.266Z,7.00
2023-01-13T15:07:51.370Z,7.00
2023-01-13T15:10:46.579Z,7.00
2023-01-13T15:13:48.882Z,7.00
2023-01-13T15:16:26.062Z,7.00
2023-01-13T15:18:54.628Z,7.00
2023-01-13T15:21:23.325Z,7.00
2023-01-13T15:23:50.504Z,6.90
2023-01-13T15:26:23.387Z,6.90
2023-01-13T15:28:51.586Z,6.90
2023-01-13T15:31:19.406Z,6.90
2023-01-13T15:33:46.573Z,6.90
2023-01-13T15:36:31.188Z,6.90
2023-01-13T15:38:59.883Z,6.90
2023-01-13T15:41:45.470Z,6.90
2023-01-13T15:44:33.013Z,6.90
2023-01-13T15:47:03.305Z,6.90
2023-01-13T15:49:42.956Z,6.90
2023-01-13T15:52:27.150Z,6.80
2023-01-13T15:54:55.111Z,6.80
2023-01-13T15:57:30.810Z,6.80
2023-01-13T16:00:05.058Z,6.80
2023-01-13T16:02:33.769Z,6.80
2023-01-13T16:05:00.859Z,6.70
2023-01-13T16:07:28.286Z,6.70
2023-01-13T16:09:55.409Z,6.70
2023-01-13T16:12:22.406Z,6.70
2023-01-13T16:14:49.531Z,6.70
2023-01-13T16:17:25.727Z,6.60
2023-01-13T16:19:52.775Z,6.60
2023-01-13T16:22:19.788Z,6.60
2023-01-13T16:24:46.970Z,6.60
2023-01-13T16:27:14.382Z,6.50
2023-01-13T16:29:41.867Z,6.50
2023-01-13T16:32:09.141Z,6.50
2023-01-13T16:34:36.151Z,6.40
2023-01-13T16:37:03.488Z,6.40
2023-01-13T16:39:31.032Z,6.40
2023-01-13T16:41:58.091Z,6.40
2023-01-13T16:44:25.112Z,6.40
2023-01-13T16:46:52.165Z,6.30
2023-01-13T16:49:19.223Z,6.30
2023-01-13T16:51:49.238Z,6.30
2023-01-13T16:54:16.277Z,6.30
2023-01-13T16:56:43.268Z,6.30
2023-01-13T16:59:16.061Z,6.30
2023-01-13T17:01:44.989Z,6.30
2023-01-13T17:04:16.505Z,6.20
2023-01-13T17:07:02.767Z,6.30
2023-01-13T17:09:30.670Z,6.20
2023-01-13T17:11:57.898Z,6.20
2023-01-13T17:14:25.912Z,6.20
2023-01-13T17:16:58.185Z,6.20
2023-01-13T17:19:25.681Z,6.20
2023-01-13T17:21:52.952Z,6.20
2023-01-13T17:24:20.611Z,6.20
2023-01-13T17:26:50.240Z,6.20
2023-01-13T17:29:23.380Z,6.20
2023-01-13T17:31:51.597Z,6.20
2023-01-13T17:34:19.699Z,6.20
2023-01-13T17:36:46.719Z,6.20
2023-01-13T17:39:19.450Z,6.20
2023-01-13T17:41:46.959Z,6.20
2023-01-13T17:44:15.963Z,6.20
2023-01-13T17:46:43.654Z,6.10
2023-01-13T17:49:15.934Z,6.20
2023-01-13T17:51:42.989Z,6.20
2023-01-13T17:54:13.062Z,6.10
2023-01-13T17:56:43.728Z,6.10
2023-01-13T17:59:15.253Z,6.00
2023-01-13T18:01:42.495Z,6.00
2023-01-13T18:04:23.497Z,6.00
2023-01-13T18:06:50.652Z,6.00
2023-01-13T18:09:18.075Z,6.00
2023-01-13T18:11:47.230Z,6.00
2023-01-13T18:14:14.915Z,6.00
2023-01-13T18:16:42.429Z,6.00
2023-01-13T18:19:29.514Z,6.00
2023-01-13T18:22:15.105Z,6.00
2023-01-13T18:25:11.445Z,6.00
2023-01-13T18:27:41.123Z,6.00
2023-01-13T18:30:09.125Z,6.00
2023-01-13T18:32:36.467Z,6.00
2023-01-13T18:35:09.700Z,6.00
2023-01-13T18:37:42.265Z,6.00
2023-01-13T18:40:16.976Z,6.00
2023-01-13T18:42:54.517Z,6.00
2023-01-13T18:45:25.155Z,5.90
2023-01-13T18:47:53.516Z,5.90
2023-01-13T18:50:21.221Z,5.90
2023-01-13T18:52:48.221Z,5.90
2023-01-13T18:55:15.266Z,5.90
2023-01-13T18:57:42.273Z,5.80
2023-01-13T19:00:12.363Z,5.80
2023-01-13T19:02:39.583Z,5.80
2023-01-13T19:05:07.131Z,5.80
2023-01-13T19:07:35.749Z,5.80
2023-01-13T19:10:04.441Z,5.70
2023-01-13T19:12:33.816Z,5.70
2023-01-13T19:15:03.138Z,5.70
2023-01-13T19:17:35.223Z,5.70
2023-01-13T19:20:02.551Z,5.70
2023-01-13T19:22:32.866Z,5.70
2023-01-13T19:25:00.965Z,5.70
2023-01-13T19:27:28.496Z,5.70
2023-01-13T19:30:00.616Z,5.70
2023-01-13T19:32:28.295Z,5.70
2023-01-13T19:34:59.269Z,5.70
2023-01-13T19:37:30.893Z,5.70
2023-01-13T19:39:59.389Z,5.70
2023-01-13T19:42:45.408Z,5.70
2023-01-13T19:45:26.751Z,5.80
2023-01-13T19:47:54.650Z,5.70
2023-01-13T19:50:21.765Z,5.70
2023-01-13T19:52:48.711Z,5.70
2023-01-13T19:55:15.772Z,5.70
2023-01-13T19:57:43.511Z,5.70
2023-01-13T20:00:11.939Z,5.80
2023-01-13T20:02:47.889Z,5.70
2023-01-13T20:05:21.974Z,5.70
2023-01-13T20:07:50.653Z,5.80
2023-01-13T20:10:18.493Z,5.70
2023-01-13T20:12:45.754Z,5.70
2023-01-13T20:15:12.716Z,5.70
2023-01-13T20:17:41.420Z,5.70
2023-01-13T20:20:09.950Z,5.70
2023-01-13T20:22:38.141Z,5.70
2023-01-13T20:25:05.439Z,5.70
2023-01-13T20:27:32.670Z,5.70
2023-01-13T20:29:59.678Z,5.60
2023-01-13T20:32:26.634Z,5.60
2023-01-13T20:34:53.598Z,5.60
2023-01-13T20:37:20.538Z,5.60
2023-01-13T20:39:48.230Z,5.60
2023-01-13T20:42:30.664Z,5.60
2023-01-13T20:45:00.006Z,5.60
2023-01-13T20:47:28.481Z,5.60
2023-01-13T20:49:55.530Z,5.60
2023-01-13T20:52:22.641Z,5.60
2023-01-13T20:54:49.605Z,5.60
2023-01-13T20:57:16.701Z,5.60
2023-01-13T20:59:43.691Z,5.60
2023-01-13T21:02:16.260Z,5.50
2023-01-13T21:04:44.053Z,5.60
2023-01-13T21:07:11.742Z,5.60
2023-01-13T21:09:38.767Z,5.50
2023-01-13T21:12:24.659Z,5.50
2023-01-13T21:15:10.241Z,5.50
2023-01-13T21:17:56.013Z,5.50
2023-01-13T21:20:23.208Z,5.50
2023-01-13T21:22:50.242Z,5.50
2023-01-13T21:25:19.028Z,5.50
2023-01-13T21:27:46.100Z,5.50
2023-01-13T21:30:15.448Z,5.50
2023-01-13T21:32:44.218Z,5.50
2023-01-13T21:35:11.818Z,5.50
2023-01-13T21:37:39.940Z,5.50
2023-01-13T21:40:09.141Z,5.50
2023-01-13T21:42:54.868Z,5.40
2023-01-13T21:45:40.439Z,5.50
2023-01-13T21:48:07.817Z,5.40
2023-01-13T21:50:35.932Z,5.40
2023-01-13T21:53:02.881Z,5.30
2023-01-13T21:55:30.480Z,5.40
2023-01-13T21:58:10.631Z,5.30
2023-01-13T22:00:38.860Z,5.30
2023-01-13T22:03:07.748Z,5.30
2023-01-13T22:05:35.111Z,5.30
2023-01-13T22:08:02.155Z,5.30
2023-01-13T22:10:30.756Z,5.30
2023-01-13T22:12:59.322Z,5.30
2023-01-13T22:15:29.146Z,5.30
2023-01-13T22:17:56.798Z,5.30
2023-01-13T22:20:23.929Z,5.30
2023-01-13T22:22:54.060Z,5.30
2023-01-13T22:25:21.831Z,5.40
2023-01-13T22:27:49.271Z,5.40
2023-01-13T22:30:21.869Z,5.40
2023-01-13T22:32:50.067Z,5.40
2023-01-13T22:35:17.446Z,5.40
2023-01-13T22:37:44.418Z,5.40
2023-01-13T22:40:12.477Z,5.40
2023-01-13T22:42:41.025Z,5.40
2023-01-13T22:45:10.007Z,5.40
2023-01-13T22:47:37.737Z,5.50
2023-01-13T22:50:06.538Z,5.50
2023-01-13T22:52:35.324Z,5.50
2023-01-13T22:55:02.555Z,5.50
2023-01-13T22:57:47.187Z,5.50
2023-01-13T23:00:19.118Z,5.50
2023-01-13T23:02:46.800Z,5.50
2023-01-13T23:05:14.164Z,5.50
2023-01-13T23:07:41.446Z,5.50
2023-01-13T23:10:09.163Z,5.50
2023-01-13T23:12:36.977Z,5.50
2023-01-13T23:15:05.293Z,5.50
2023-01-13T23:17:32.393Z,5.50
2023-01-13T23:19:59.554Z,5.50
2023-01-13T23:22:26.583Z,5.60
2023-01-13T23:24:53.637Z,5.60
2023-01-13T23:27:20.732Z,5.50
2023-01-13T23:29:47.783Z,5.50
2023-01-13T23:32:14.766Z,5.50
2023-01-13T23:34:41.783Z,5.50
2023-01-13T23:37:08.793Z,5.60
2023-01-13T23:39:35.808Z,5.60
2023-01-13T23:42:02.933Z,5.60
2023-01-13T23:44:29.902Z,5.60
2023-01-13T23:46:57.000Z,5.60
2023-01-13T23:49:24.145Z,5.60
2023-01-13T23:51:52.098Z,5.60
2023-01-13T23:54:19.198Z,5.60
2023-01-13T23:56:46.424Z,5.60
2023-01-13T23:59:13.396Z,5.50
